sensor_id;sensor_type;location;lat;lon;timestamp;pressure;altitude;pressure_sealevel;temperature;humidity
61761;BME280;47664;51.660;-0.100;2023-04-10T00:01:06;100839.65;;;11.86;46.23
61761;BME280;47664;51.660;-0.100;2023-04-10T00:03:33;100833.30;;;12.05;45.75
61761;BME280;47664;51.660;-0.100;2023-04-10T00:06:00;100831.88;;;11.67;45.92
61761;BME280;47664;51.660;-0.100;2023-04-10T00:08:27;100826.83;;;11.98;46.14
61761;BME280;47664;51.660;-0.100;2023-04-10T00:10:54;100824.75;;;11.40;46.37
61761;BME280;47664;51.660;-0.100;2023-04-10T00:13:21;100818.26;;;11.52;46.99
61761;BME280;47664;51.660;-0.100;2023-04-10T00:15:49;100816.30;;;11.77;47.09
61761;BME280;47664;51.660;-0.100;2023-04-10T00:18:16;100811.11;;;11.06;46.91
61761;BME280;47664;51.660;-0.100;2023-04-10T00:20:44;100806.59;;;11.68;46.69
61761;BME280;47664;51.660;-0.100;2023-04-10T00:23:11;100804.68;;;11.56;46.51
61761;BME280;47664;51.660;-0.100;2023-04-10T00:25:38;100805.75;;;11.75;46.23
61761;BME280;47664;51.660;-0.100;2023-04-10T00:28:05;100803.48;;;11.89;46.03
61761;BME280;47664;51.660;-0.100;2023-04-10T00:30:32;100805.14;;;12.14;45.70
61761;BME280;47664;51.660;-0.100;2023-04-10T00:32:59;100802.76;;;12.00;45.89
61761;BME280;47664;51.660;-0.100;2023-04-10T00:35:26;100804.66;;;11.95;45.46
61761;BME280;47664;51.660;-0.100;2023-04-10T00:37:53;100801.24;;;12.41;45.40
61761;BME280;47664;51.660;-0.100;2023-04-10T00:40:21;100803.43;;;11.86;44.93
61761;BME280;47664;51.660;-0.100;2023-04-10T00:42:49;100798.75;;;12.48;44.73
61761;BME280;47664;51.660;-0.100;2023-04-10T00:45:17;100788.80;;;11.49;45.00
61761;BME280;47664;51.660;-0.100;2023-04-10T00:47:44;100783.55;;;12.41;44.91
61761;BME280;47664;51.660;-0.100;2023-04-10T00:50:12;100780.03;;;12.05;44.78
61761;BME280;47664;51.660;-0.100;2023-04-10T00:52:39;100779.16;;;12.88;44.37
61761;BME280;47664;51.660;-0.100;2023-04-10T00:55:07;100777.69;;;13.07;44.05
61761;BME280;47664;51.660;-0.100;2023-04-10T00:57:34;100773.94;;;12.95;44.04
61761;BME280;47664;51.660;-0.100;2023-04-10T01:00:02;100771.53;;;12.94;44.24
61761;BME280;47664;51.660;-0.100;2023-04-10T01:02:29;100775.14;;;12.44;44.70
61761;BME280;47664;51.660;-0.100;2023-04-10T01:04:57;100767.43;;;12.91;45.00
61761;BME280;47664;51.660;-0.100;2023-04-10T01:07:34;100757.42;;;11.97;45.38
61761;BME280;47664;51.660;-0.100;2023-04-10T01:10:10;100758.31;;;12.50;45.30
61761;BME280;47664;51.660;-0.100;2023-04-10T01:12:51;100751.33;;;12.15;45.58
61761;BME280;47664;51.660;-0.100;2023-04-10T01:15:22;100747.94;;;12.45;45.45
61761;BME280;47664;51.660;-0.100;2023-04-10T01:17:56;100749.47;;;12.68;46.02
61761;BME280;47664;51.660;-0.100;2023-04-10T01:20:29;100746.09;;;12.02;47.67
61761;BME280;47664;51.660;-0.100;2023-04-10T01:23:16;100735.75;;;12.23;47.60
61761;BME280;47664;51.660;-0.100;2023-04-10T01:25:50;100735.22;;;11.94;48.15
61761;BME280;47664;51.660;-0.100;2023-04-10T01:28:42;100732.90;;;11.76;48.08
61761;BME280;47664;51.660;-0.100;2023-04-10T01:31:17;100722.14;;;12.25;48.79
61761;BME280;47664;51.660;-0.100;2023-04-10T01:33:48;100728.77;;;12.44;48.79
61761;BME280;47664;51.660;-0.100;2023-04-10T01:36:21;100717.92;;;12.19;49.10
61761;BME280;47664;51.660;-0.100;2023-04-10T01:38:50;100725.73;;;12.64;49.54
61761;BME280;47664;51.660;-0.100;2023-04-10T01:41:20;100724.21;;;11.51;50.49
61761;BME280;47664;51.660;-0.100;2023-04-10T01:43:49;100725.92;;;12.35;50.41
61761;BME280;47664;51.660;-0.100;2023-04-10T01:46:18;100729.77;;;11.68;50.51
61761;BME280;47664;51.660;-0.100;2023-04-10T01:48:46;100728.07;;;12.60;50.18
61761;BME280;47664;51.660;-0.100;2023-04-10T01:51:16;100715.26;;;11.78;50.05
61761;BME280;47664;51.660;-0.100;2023-04-10T01:53:43;100718.22;;;12.54;50.53
61761;BME280;47664;51.660;-0.100;2023-04-10T01:56:12;100718.20;;;12.76;49.79
61761;BME280;47664;51.660;-0.100;2023-04-10T01:58:39;100712.68;;;12.29;50.55
61761;BME280;47664;51.660;-0.100;2023-04-10T02:01:07;100710.92;;;12.70;50.96
61761;BME280;47664;51.660;-0.100;2023-04-10T02:03:35;100708.10;;;12.38;50.87
61761;BME280;47664;51.660;-0.100;2023-04-10T02:06:10;100696.63;;;12.00;52.29
61761;BME280;47664;51.660;-0.100;2023-04-10T02:08:48;100698.00;;;12.30;51.79
61761;BME280;47664;51.660;-0.100;2023-04-10T02:11:28;100685.41;;;11.33;52.52
61761;BME280;47664;51.660;-0.100;2023-04-10T02:14:00;100683.33;;;12.24;52.48
61761;BME280;47664;51.660;-0.100;2023-04-10T02:16:29;100683.47;;;12.11;51.88
61761;BME280;47664;51.660;-0.100;2023-04-10T02:18:58;100685.71;;;12.50;51.88
61761;BME280;47664;51.660;-0.100;2023-04-10T02:21:27;100680.47;;;12.29;51.86
61761;BME280;47664;51.660;-0.100;2023-04-10T02:23:56;100680.26;;;12.37;51.47
61761;BME280;47664;51.660;-0.100;2023-04-10T02:26:23;100671.16;;;12.12;52.04
61761;BME280;47664;51.660;-0.100;2023-04-10T02:28:50;100669.38;;;12.19;52.63
61761;BME280;47664;51.660;-0.100;2023-04-10T02:31:18;100670.74;;;11.50;52.43
61761;BME280;47664;51.660;-0.100;2023-04-10T02:33:45;100667.24;;;12.27;53.11
61761;BME280;47664;51.660;-0.100;2023-04-10T02:36:12;100666.10;;;11.27;55.37
61761;BME280;47664;51.660;-0.100;2023-04-10T02:38:39;100664.61;;;11.82;55.40
61761;BME280;47664;51.660;-0.100;2023-04-10T02:41:07;100663.72;;;11.93;55.40
61761;BME280;47664;51.660;-0.100;2023-04-10T02:43:35;100661.16;;;11.47;56.52
61761;BME280;47664;51.660;-0.100;2023-04-10T02:46:02;100657.71;;;11.36;56.68
61761;BME280;47664;51.660;-0.100;2023-04-10T02:48:30;100655.15;;;11.52;57.46
61761;BME280;47664;51.660;-0.100;2023-04-10T02:50:57;100652.08;;;11.40;57.78
61761;BME280;47664;51.660;-0.100;2023-04-10T02:53:25;100642.73;;;11.37;57.02
61761;BME280;47664;51.660;-0.100;2023-04-10T02:55:52;100641.98;;;11.62;57.50
61761;BME280;47664;51.660;-0.100;2023-04-10T02:58:20;100644.79;;;10.77;57.89
61761;BME280;47664;51.660;-0.100;2023-04-10T03:00:48;100647.60;;;11.29;58.80
61761;BME280;47664;51.660;-0.100;2023-04-10T03:03:17;100644.19;;;10.40;59.52
61761;BME280;47664;51.660;-0.100;2023-04-10T03:05:45;100648.46;;;10.86;59.52
61761;BME280;47664;51.660;-0.100;2023-04-10T03:08:13;100650.99;;;10.96;58.55
61761;BME280;47664;51.660;-0.100;2023-04-10T03:10:42;100646.96;;;11.44;58.60
61761;BME280;47664;51.660;-0.100;2023-04-10T03:13:10;100642.42;;;10.79;61.28
61761;BME280;47664;51.660;-0.100;2023-04-10T03:15:37;100642.34;;;10.33;61.73
61761;BME280;47664;51.660;-0.100;2023-04-10T03:18:04;100645.40;;;10.99;61.65
61761;BME280;47664;51.660;-0.100;2023-04-10T03:20:32;100644.17;;;10.81;62.20
61761;BME280;47664;51.660;-0.100;2023-04-10T03:22:59;100647.73;;;11.00;61.43
61761;BME280;47664;51.660;-0.100;2023-04-10T03:25:26;100644.92;;;11.16;61.67
61761;BME280;47664;51.660;-0.100;2023-04-10T03:27:54;100633.02;;;11.03;62.67
61761;BME280;47664;51.660;-0.100;2023-04-10T03:30:21;100626.76;;;10.29;63.29
61761;BME280;47664;51.660;-0.100;2023-04-10T03:32:48;100627.31;;;10.98;63.39
61761;BME280;47664;51.660;-0.100;2023-04-10T03:35:16;100623.95;;;9.89;64.54
61761;BME280;47664;51.660;-0.100;2023-04-10T03:37:43;100617.25;;;10.94;64.04
61761;BME280;47664;51.660;-0.100;2023-04-10T03:40:11;100611.93;;;10.37;65.26
61761;BME280;47664;51.660;-0.100;2023-04-10T03:42:38;100611.24;;;10.90;65.15
61761;BME280;47664;51.660;-0.100;2023-04-10T03:45:05;100611.79;;;10.88;64.82
61761;BME280;47664;51.660;-0.100;2023-04-10T03:47:33;100608.75;;;11.10;64.50
61761;BME280;47664;51.660;-0.100;2023-04-10T03:50:00;100606.45;;;11.07;64.66
61761;BME280;47664;51.660;-0.100;2023-04-10T03:52:28;100602.44;;;10.97;63.76
61761;BME280;47664;51.660;-0.100;2023-04-10T03:54:55;100600.96;;;10.98;65.00
61761;BME280;47664;51.660;-0.100;2023-04-10T03:57:22;100592.78;;;9.96;65.45
61761;BME280;47664;51.660;-0.100;2023-04-10T03:59:50;100587.81;;;11.02;65.62
61761;BME280;47664;51.660;-0.100;2023-04-10T04:02:17;100582.94;;;11.08;65.18
61761;BME280;47664;51.660;-0.100;2023-04-10T04:04:44;100579.42;;;11.20;65.63
61761;BME280;47664;51.660;-0.100;2023-04-10T04:07:10;100574.79;;;10.81;65.78
61761;BME280;47664;51.660;-0.100;2023-04-10T04:09:37;100569.08;;;10.33;67.60
61761;BME280;47664;51.660;-0.100;2023-04-10T04:12:05;100565.27;;;10.45;67.41
61761;BME280;47664;51.660;-0.100;2023-04-10T04:14:32;100559.94;;;10.70;66.55
61761;BME280;47664;51.660;-0.100;2023-04-10T04:16:59;100564.98;;;10.95;66.50
61761;BME280;47664;51.660;-0.100;2023-04-10T04:19:26;100564.97;;;10.15;66.73
61761;BME280;47664;51.660;-0.100;2023-04-10T04:21:54;100563.87;;;10.69;66.37
61761;BME280;47664;51.660;-0.100;2023-04-10T04:24:21;100569.04;;;10.45;66.06
61761;BME280;47664;51.660;-0.100;2023-04-10T04:26:48;100564.44;;;11.35;65.66
61761;BME280;47664;51.660;-0.100;2023-04-10T04:29:15;100557.42;;;10.52;66.06
61761;BME280;47664;51.660;-0.100;2023-04-10T04:31:42;100561.41;;;11.42;64.88
61761;BME280;47664;51.660;-0.100;2023-04-10T04:34:10;100554.27;;;10.37;66.07
61761;BME280;47664;51.660;-0.100;2023-04-10T04:36:37;100554.73;;;10.80;66.09
61761;BME280;47664;51.660;-0.100;2023-04-10T04:39:04;100551.55;;;10.89;65.39
61761;BME280;47664;51.660;-0.100;2023-04-10T04:41:31;100545.44;;;10.63;66.36
61761;BME280;47664;51.660;-0.100;2023-04-10T04:43:58;100542.51;;;10.93;66.49
61761;BME280;47664;51.660;-0.100;2023-04-10T04:46:25;100542.65;;;10.65;66.25
61761;BME280;47664;51.660;-0.100;2023-04-10T04:48:53;100537.20;;;11.09;66.14
61761;BME280;47664;51.660;-0.100;2023-04-10T04:51:20;100535.30;;;10.14;67.20
61761;BME280;47664;51.660;-0.100;2023-04-10T04:53:47;100532.34;;;10.66;67.38
61761;BME280;47664;51.660;-0.100;2023-04-10T04:56:15;100526.66;;;10.32;67.36
61761;BME280;47664;51.660;-0.100;2023-04-10T04:58:42;100523.10;;;10.68;67.88
61761;BME280;47664;51.660;-0.100;2023-04-10T05:01:09;100518.51;;;10.56;68.57
61761;BME280;47664;51.660;-0.100;2023-04-10T05:03:36;100518.62;;;10.72;69.09
61761;BME280;47664;51.660;-0.100;2023-04-10T05:06:03;100515.75;;;10.71;68.60
61761;BME280;47664;51.660;-0.100;2023-04-10T05:08:30;100512.62;;;10.53;68.48
61761;BME280;47664;51.660;-0.100;2023-04-10T05:10:57;100506.27;;;10.80;68.36
61761;BME280;47664;51.660;-0.100;2023-04-10T05:13:24;100507.10;;;10.02;68.37
61761;BME280;47664;51.660;-0.100;2023-04-10T05:15:51;100508.50;;;9.87;69.83
61761;BME280;47664;51.660;-0.100;2023-04-10T05:18:19;100506.86;;;9.24;70.27
61761;BME280;47664;51.660;-0.100;2023-04-10T05:20:46;100507.70;;;9.88;70.12
61761;BME280;47664;51.660;-0.100;2023-04-10T05:23:13;100507.61;;;9.60;70.32
61761;BME280;47664;51.660;-0.100;2023-04-10T05:25:41;100496.68;;;9.83;71.11
61761;BME280;47664;51.660;-0.100;2023-04-10T05:28:08;100494.48;;;10.37;70.29
61761;BME280;47664;51.660;-0.100;2023-04-10T05:30:35;100493.22;;;10.35;70.32
61761;BME280;47664;51.660;-0.100;2023-04-10T05:33:02;100488.67;;;10.15;70.81
61761;BME280;47664;51.660;-0.100;2023-04-10T05:35:29;100485.48;;;9.80;70.38
61761;BME280;47664;51.660;-0.100;2023-04-10T05:37:56;100483.83;;;10.07;69.93
61761;BME280;47664;51.660;-0.100;2023-04-10T05:40:23;100481.61;;;9.43;69.46
61761;BME280;47664;51.660;-0.100;2023-04-10T05:42:50;100480.82;;;10.34;68.86
61761;BME280;47664;51.660;-0.100;2023-04-10T05:45:18;100471.36;;;9.67;67.97
61761;BME280;47664;51.660;-0.100;2023-04-10T05:47:45;100467.54;;;10.23;68.49
61761;BME280;47664;51.660;-0.100;2023-04-10T05:50:12;100465.29;;;9.72;69.89
61761;BME280;47664;51.660;-0.100;2023-04-10T05:52:40;100465.71;;;10.29;68.11
61761;BME280;47664;51.660;-0.100;2023-04-10T05:55:10;100466.04;;;10.74;67.74
61761;BME280;47664;51.660;-0.100;2023-04-10T05:57:37;100459.26;;;9.80;68.46
61761;BME280;47664;51.660;-0.100;2023-04-10T06:00:06;100456.66;;;10.32;68.35
61761;BME280;47664;51.660;-0.100;2023-04-10T06:02:33;100451.12;;;10.38;67.81
61761;BME280;47664;51.660;-0.100;2023-04-10T06:05:00;100449.73;;;10.45;67.44
61761;BME280;47664;51.660;-0.100;2023-04-10T06:07:28;100446.12;;;10.43;67.43
61761;BME280;47664;51.660;-0.100;2023-04-10T06:09:54;100436.60;;;10.94;67.04
61761;BME280;47664;51.660;-0.100;2023-04-10T06:12:21;100435.55;;;9.80;67.39
61761;BME280;47664;51.660;-0.100;2023-04-10T06:14:48;100433.17;;;10.59;66.63
61761;BME280;47664;51.660;-0.100;2023-04-10T06:17:16;100431.31;;;10.23;66.58
61761;BME280;47664;51.660;-0.100;2023-04-10T06:19:43;100425.79;;;10.37;67.11
61761;BME280;47664;51.660;-0.100;2023-04-10T06:22:10;100425.45;;;10.53;67.62
61761;BME280;47664;51.660;-0.100;2023-04-10T06:24:38;100422.96;;;10.43;69.37
61761;BME280;47664;51.660;-0.100;2023-04-10T06:27:05;100415.85;;;10.59;68.73
61761;BME280;47664;51.660;-0.100;2023-04-10T06:29:32;100414.91;;;10.28;68.84
61761;BME280;47664;51.660;-0.100;2023-04-10T06:31:59;100412.71;;;10.60;68.69
61761;BME280;47664;51.660;-0.100;2023-04-10T06:34:25;100407.95;;;10.01;70.23
61761;BME280;47664;51.660;-0.100;2023-04-10T06:36:52;100410.21;;;10.72;69.43
61761;BME280;47664;51.660;-0.100;2023-04-10T06:39:20;100409.71;;;9.82;69.77
61761;BME280;47664;51.660;-0.100;2023-04-10T06:41:47;100406.52;;;10.54;69.00
61761;BME280;47664;51.660;-0.100;2023-04-10T06:44:15;100402.96;;;9.89;68.97
61761;BME280;47664;51.660;-0.100;2023-04-10T06:46:42;100402.23;;;10.48;68.90
61761;BME280;47664;51.660;-0.100;2023-04-10T06:49:09;100402.58;;;10.55;68.65
61761;BME280;47664;51.660;-0.100;2023-04-10T06:51:37;100399.35;;;10.79;68.65
61761;BME280;47664;51.660;-0.100;2023-04-10T06:54:04;100397.84;;;10.80;68.80
61761;BME280;47664;51.660;-0.100;2023-04-10T06:56:31;100399.54;;;10.57;69.16
61761;BME280;47664;51.660;-0.100;2023-04-10T06:58:58;100395.83;;;10.63;69.69
61761;BME280;47664;51.660;-0.100;2023-04-10T07:01:25;100399.67;;;9.95;70.07
61761;BME280;47664;51.660;-0.100;2023-04-10T07:03:52;100393.26;;;10.66;69.77
61761;BME280;47664;51.660;-0.100;2023-04-10T07:06:19;100386.83;;;9.66;71.14
61761;BME280;47664;51.660;-0.100;2023-04-10T07:08:48;100381.95;;;10.44;70.22
61761;BME280;47664;51.660;-0.100;2023-04-10T07:11:15;100376.36;;;9.89;70.57
61761;BME280;47664;51.660;-0.100;2023-04-10T07:13:42;100380.20;;;10.43;71.16
61761;BME280;47664;51.660;-0.100;2023-04-10T07:16:10;100376.34;;;10.48;70.60
61761;BME280;47664;51.660;-0.100;2023-04-10T07:18:37;100368.57;;;10.50;70.67
61761;BME280;47664;51.660;-0.100;2023-04-10T07:21:09;100370.56;;;10.71;70.41
61761;BME280;47664;51.660;-0.100;2023-04-10T07:23:36;100362.43;;;10.58;70.23
61761;BME280;47664;51.660;-0.100;2023-04-10T07:26:03;100356.26;;;10.94;69.85
61761;BME280;47664;51.660;-0.100;2023-04-10T07:28:31;100358.88;;;10.25;69.91
61761;BME280;47664;51.660;-0.100;2023-04-10T07:30:58;100352.94;;;10.71;70.11
61761;BME280;47664;51.660;-0.100;2023-04-10T07:33:25;100349.91;;;9.92;70.58
61761;BME280;47664;51.660;-0.100;2023-04-10T07:35:52;100346.63;;;10.15;71.32
61761;BME280;47664;51.660;-0.100;2023-04-10T07:38:19;100340.24;;;9.35;71.10
61761;BME280;47664;51.660;-0.100;2023-04-10T07:40:47;100346.19;;;10.07;71.87
61761;BME280;47664;51.660;-0.100;2023-04-10T07:43:14;100337.69;;;9.46;72.82
61761;BME280;47664;51.660;-0.100;2023-04-10T07:45:41;100336.88;;;10.04;73.85
61761;BME280;47664;51.660;-0.100;2023-04-10T07:48:09;100336.53;;;9.91;72.85
61761;BME280;47664;51.660;-0.100;2023-04-10T07:50:36;100331.76;;;9.91;72.28
61761;BME280;47664;51.660;-0.100;2023-04-10T07:53:03;100327.56;;;10.26;72.34
61761;BME280;47664;51.660;-0.100;2023-04-10T07:55:31;100320.60;;;10.18;71.02
61761;BME280;47664;51.660;-0.100;2023-04-10T07:57:57;100311.82;;;10.22;70.85
61761;BME280;47664;51.660;-0.100;2023-04-10T08:00:24;100310.58;;;9.77;71.47
61761;BME280;47664;51.660;-0.100;2023-04-10T08:02:51;100298.68;;;10.45;71.04
61761;BME280;47664;51.660;-0.100;2023-04-10T08:05:19;100300.01;;;9.54;71.58
61761;BME280;47664;51.660;-0.100;2023-04-10T08:07:46;100292.07;;;9.75;71.23
61761;BME280;47664;51.660;-0.100;2023-04-10T08:10:14;100289.66;;;9.43;71.95
61761;BME280;47664;51.660;-0.100;2023-04-10T08:12:41;100288.11;;;9.67;72.99
61761;BME280;47664;51.660;-0.100;2023-04-10T08:15:09;100294.08;;;10.09;71.50
61761;BME280;47664;51.660;-0.100;2023-04-10T08:17:37;100292.94;;;9.74;72.96
61761;BME280;47664;51.660;-0.100;2023-04-10T08:20:06;100281.87;;;10.02;72.38
61761;BME280;47664;51.660;-0.100;2023-04-10T08:22:33;100284.12;;;9.65;73.04
61761;BME280;47664;51.660;-0.100;2023-04-10T08:25:01;100274.22;;;10.01;73.12
61761;BME280;47664;51.660;-0.100;2023-04-10T08:27:28;100266.44;;;9.67;73.06
61761;BME280;47664;51.660;-0.100;2023-04-10T08:29:55;100266.37;;;9.83;73.91
61761;BME280;47664;51.660;-0.100;2023-04-10T08:32:23;100265.05;;;9.17;73.88
61761;BME280;47664;51.660;-0.100;2023-04-10T08:34:51;100258.36;;;9.89;73.07
61761;BME280;47664;51.660;-0.100;2023-04-10T08:37:18;100256.33;;;9.27;73.27
61761;BME280;47664;51.660;-0.100;2023-04-10T08:39:45;100247.76;;;10.06;74.30
61761;BME280;47664;51.660;-0.100;2023-04-10T08:42:13;100243.43;;;9.53;74.20
61761;BME280;47664;51.660;-0.100;2023-04-10T08:44:40;100238.14;;;10.00;74.44
61761;BME280;47664;51.660;-0.100;2023-04-10T08:47:08;100233.52;;;10.12;73.98
61761;BME280;47664;51.660;-0.100;2023-04-10T08:49:40;100223.47;;;9.32;75.58
61761;BME280;47664;51.660;-0.100;2023-04-10T08:52:08;100219.31;;;10.04;74.88
61761;BME280;47664;51.660;-0.100;2023-04-10T08:54:41;100208.67;;;9.82;75.01
61761;BME280;47664;51.660;-0.100;2023-04-10T08:57:11;100201.42;;;9.79;74.89
61761;BME280;47664;51.660;-0.100;2023-04-10T08:59:40;100197.20;;;10.13;73.62
61761;BME280;47664;51.660;-0.100;2023-04-10T09:02:07;100193.23;;;10.06;73.97
61761;BME280;47664;51.660;-0.100;2023-04-10T09:04:35;100193.06;;;10.13;74.00
61761;BME280;47664;51.660;-0.100;2023-04-10T09:07:03;100193.58;;;10.35;73.99
61761;BME280;47664;51.660;-0.100;2023-04-10T09:09:29;100189.97;;;10.14;73.82
61761;BME280;47664;51.660;-0.100;2023-04-10T09:11:58;100189.46;;;10.43;73.09
61761;BME280;47664;51.660;-0.100;2023-04-10T09:14:27;100190.96;;;10.17;73.51
61761;BME280;47664;51.660;-0.100;2023-04-10T09:17:12;100188.79;;;10.35;73.16
61761;BME280;47664;51.660;-0.100;2023-04-10T09:19:41;100188.69;;;10.31;74.50
61761;BME280;47664;51.660;-0.100;2023-04-10T09:22:09;100181.60;;;10.31;73.93
61761;BME280;47664;51.660;-0.100;2023-04-10T09:24:43;100176.15;;;10.40;73.69
61761;BME280;47664;51.660;-0.100;2023-04-10T09:27:27;100171.82;;;9.82;75.27
61761;BME280;47664;51.660;-0.100;2023-04-10T09:29:54;100164.62;;;10.34;74.94
61761;BME280;47664;51.660;-0.100;2023-04-10T09:32:39;100163.47;;;9.50;74.57
61761;BME280;47664;51.660;-0.100;2023-04-10T09:35:08;100154.30;;;9.96;76.35
61761;BME280;47664;51.660;-0.100;2023-04-10T09:37:36;100156.71;;;10.31;75.99
61761;BME280;47664;51.660;-0.100;2023-04-10T09:40:04;100157.39;;;10.11;76.05
61761;BME280;47664;51.660;-0.100;2023-04-10T09:42:33;100155.76;;;9.70;76.28
61761;BME280;47664;51.660;-0.100;2023-04-10T09:45:00;100158.00;;;9.99;76.02
61761;BME280;47664;51.660;-0.100;2023-04-10T09:47:28;100157.46;;;9.79;75.34
61761;BME280;47664;51.660;-0.100;2023-04-10T09:49:56;100150.23;;;9.84;76.16
61761;BME280;47664;51.660;-0.100;2023-04-10T09:52:25;100146.11;;;9.75;77.45
61761;BME280;47664;51.660;-0.100;2023-04-10T09:54:53;100150.65;;;10.19;76.23
61761;BME280;47664;51.660;-0.100;2023-04-10T09:57:23;100145.38;;;9.77;76.96
61761;BME280;47664;51.660;-0.100;2023-04-10T09:59:52;100148.03;;;10.06;76.77
61761;BME280;47664;51.660;-0.100;2023-04-10T10:02:21;100146.68;;;9.72;75.86
61761;BME280;47664;51.660;-0.100;2023-04-10T10:04:49;100141.99;;;9.81;77.22
61761;BME280;47664;51.660;-0.100;2023-04-10T10:07:19;100138.71;;;9.58;76.39
61761;BME280;47664;51.660;-0.100;2023-04-10T10:09:48;100128.27;;;10.08;77.54
61761;BME280;47664;51.660;-0.100;2023-04-10T10:12:18;100125.18;;;9.34;77.05
61761;BME280;47664;51.660;-0.100;2023-04-10T10:14:58;100122.94;;;10.25;76.94
61761;BME280;47664;51.660;-0.100;2023-04-10T10:17:31;100119.07;;;9.51;77.82
61761;BME280;47664;51.660;-0.100;2023-04-10T10:20:03;100117.01;;;10.06;77.47
61761;BME280;47664;51.660;-0.100;2023-04-10T10:22:31;100113.95;;;10.01;77.67
61761;BME280;47664;51.660;-0.100;2023-04-10T10:24:58;100115.64;;;10.55;77.01
61761;BME280;47664;51.660;-0.100;2023-04-10T10:27:28;100109.18;;;9.65;77.70
61761;BME280;47664;51.660;-0.100;2023-04-10T10:29:59;100111.64;;;9.85;78.12
61761;BME280;47664;51.660;-0.100;2023-04-10T10:32:26;100105.17;;;9.65;76.61
61761;BME280;47664;51.660;-0.100;2023-04-10T10:34:53;100102.14;;;9.93;77.39
61761;BME280;47664;51.660;-0.100;2023-04-10T10:37:22;100094.54;;;9.98;75.92
61761;BME280;47664;51.660;-0.100;2023-04-10T10:39:56;100087.02;;;10.43;75.37
61761;BME280;47664;51.660;-0.100;2023-04-10T10:42:32;100074.22;;;10.37;74.75
61761;BME280;47664;51.660;-0.100;2023-04-10T10:45:08;100074.30;;;10.41;75.14
61761;BME280;47664;51.660;-0.100;2023-04-10T10:47:42;100075.01;;;10.51;76.09
61761;BME280;47664;51.660;-0.100;2023-04-10T10:50:10;100064.19;;;10.63;74.66
61761;BME280;47664;51.660;-0.100;2023-04-10T10:52:40;100062.72;;;10.91;73.79
61761;BME280;47664;51.660;-0.100;2023-04-10T10:55:40;100058.21;;;10.66;74.15
61761;BME280;47664;51.660;-0.100;2023-04-10T10:58:09;100057.97;;;10.48;75.18
61761;BME280;47664;51.660;-0.100;2023-04-10T11:01:08;100056.95;;;10.10;74.92
61761;BME280;47664;51.660;-0.100;2023-04-10T11:03:35;100050.47;;;10.28;76.02
61761;BME280;47664;51.660;-0.100;2023-04-10T11:06:05;100046.49;;;10.57;74.96
61761;BME280;47664;51.660;-0.100;2023-04-10T11:08:38;100039.74;;;10.46;74.53
61761;BME280;47664;51.660;-0.100;2023-04-10T11:11:06;100039.23;;;11.14;74.62
61761;BME280;47664;51.660;-0.100;2023-04-10T11:13:34;100043.90;;;10.52;74.95
61761;BME280;47664;51.660;-0.100;2023-04-10T11:16:04;100033.95;;;10.50;75.76
61761;BME280;47664;51.660;-0.100;2023-04-10T11:19:05;100045.64;;;10.19;76.30
61761;BME280;47664;51.660;-0.100;2023-04-10T11:21:33;100041.55;;;10.62;75.86
61761;BME280;47664;51.660;-0.100;2023-04-10T11:24:03;100042.13;;;10.66;75.73
61761;BME280;47664;51.660;-0.100;2023-04-10T11:26:39;100044.51;;;10.69;75.83
61761;BME280;47664;51.660;-0.100;2023-04-10T11:29:31;100043.94;;;10.66;75.75
61761;BME280;47664;51.660;-0.100;2023-04-10T11:32:00;100025.99;;;10.85;75.33
61761;BME280;47664;51.660;-0.100;2023-04-10T11:34:28;100027.06;;;10.51;74.13
61761;BME280;47664;51.660;-0.100;2023-04-10T11:36:56;100031.91;;;11.33;73.69
61761;BME280;47664;51.660;-0.100;2023-04-10T11:39:25;100036.69;;;10.68;74.02
61761;BME280;47664;51.660;-0.100;2023-04-10T11:41:53;100039.45;;;10.75;74.97
61761;BME280;47664;51.660;-0.100;2023-04-10T11:44:27;100045.07;;;10.46;73.55
61761;BME280;47664;51.660;-0.100;2023-04-10T11:46:55;100034.13;;;10.95;74.10
61761;BME280;47664;51.660;-0.100;2023-04-10T11:49:25;100027.50;;;10.32;73.67
61761;BME280;47664;51.660;-0.100;2023-04-10T11:51:53;100022.10;;;11.02;73.32
61761;BME280;47664;51.660;-0.100;2023-04-10T11:54:22;100001.36;;;10.34;72.89
61761;BME280;47664;51.660;-0.100;2023-04-10T11:56:58;100002.74;;;11.53;71.35
61761;BME280;47664;51.660;-0.100;2023-04-10T11:59:27;100001.37;;;11.03;71.78
61761;BME280;47664;51.660;-0.100;2023-04-10T12:02:04;99998.01;;;11.02;73.99
61761;BME280;47664;51.660;-0.100;2023-04-10T12:04:32;99989.27;;;11.39;72.67
61761;BME280;47664;51.660;-0.100;2023-04-10T12:07:00;99985.95;;;11.55;72.86
61761;BME280;47664;51.660;-0.100;2023-04-10T12:09:27;99989.69;;;11.50;73.01
61761;BME280;47664;51.660;-0.100;2023-04-10T12:11:57;99990.30;;;11.77;71.64
61761;BME280;47664;51.660;-0.100;2023-04-10T12:14:30;99982.24;;;11.46;70.63
61761;BME280;47664;51.660;-0.100;2023-04-10T12:16:58;99990.45;;;11.93;70.85
61761;BME280;47664;51.660;-0.100;2023-04-10T12:19:26;99987.52;;;11.49;71.20
61761;BME280;47664;51.660;-0.100;2023-04-10T12:21:55;99992.23;;;12.36;69.47
61761;BME280;47664;51.660;-0.100;2023-04-10T12:24:55;99986.30;;;11.68;69.50
61761;BME280;47664;51.660;-0.100;2023-04-10T12:27:23;99988.54;;;11.31;67.83
61761;BME280;47664;51.660;-0.100;2023-04-10T12:29:52;99986.13;;;12.12;67.42
61761;BME280;47664;51.660;-0.100;2023-04-10T12:32:20;99983.33;;;11.42;67.67
61761;BME280;47664;51.660;-0.100;2023-04-10T12:34:51;99983.15;;;11.44;69.21
61761;BME280;47664;51.660;-0.100;2023-04-10T12:37:19;99984.41;;;11.21;69.21
61761;BME280;47664;51.660;-0.100;2023-04-10T12:39:46;99989.63;;;11.56;71.30
61761;BME280;47664;51.660;-0.100;2023-04-10T12:42:15;99996.98;;;11.31;71.11
61761;BME280;47664;51.660;-0.100;2023-04-10T12:44:52;99997.89;;;11.35;73.51
61761;BME280;47664;51.660;-0.100;2023-04-10T12:47:21;100001.90;;;10.51;72.32
61761;BME280;47664;51.660;-0.100;2023-04-10T12:50:20;99998.45;;;10.70;71.04
61761;BME280;47664;51.660;-0.100;2023-04-10T12:53:01;99988.63;;;10.40;68.60